Corona Range LRC

2021-06-24 17:40:00

  • imperial
Date Time Air Temperature Relative Humidity Dewpoint Windchill Heat Index Wind Speed Wind Dir. Rain Solar Radiation Soil Temperature
2m 2m 3m 3m 10cm
US/Mountain F % F F F MPH deg in MJ/m^2 F
max avg avg
2021-06-23 17:50:00 90.1 10.7 27.9 90.1 90.1 8.1 16.5 11.5 241.5 225.0 0.00 0.0348443 91.5
2021-06-23 17:55:00 91.1 10.4 27.9 91.1 91.1 19.9 20.3 14.9 218.7 213.4 0.00 0.0578199 91.6
2021-06-23 18:00:00 90.4 10.5 27.5 90.4 90.4 6.9 19.6 12.1 189.2 202.7 0.00 0.0374877 91.6
2021-06-23 18:05:00 91.3 10.0 27.2 91.3 91.3 8.8 16.2 10.9 211.9 188.9 0.00 0.0841006 91.6
2021-06-23 18:10:00 91.9 9.6 26.6 91.9 91.9 10.8 19.2 12.3 220.8 211.7 0.00 0.0735809 91.6
2021-06-23 18:15:00 91.3 9.8 26.5 91.3 91.3 17.6 20.3 15.4 197.0 201.2 0.00 0.0434812 91.6
2021-06-23 18:20:00 89.9 10.6 27.4 89.9 89.9 13.1 17.2 14.2 203.2 196.3 0.00 0.0228482 91.6
2021-06-23 18:25:00 89.8 10.5 27.0 89.8 89.8 17.2 18.1 13.2 199.6 213.2 0.00 0.0236498 91.6
2021-06-23 18:30:00 89.6 10.6 27.2 89.6 89.6 14.9 18.3 14.1 205.0 199.8 0.00 0.0286287 91.5
2021-06-23 18:35:00 89.6 11.0 28.2 89.6 89.6 12.4 18.1 13.1 234.4 198.4 0.00 0.0289929 91.5
2021-06-23 18:40:00 89.9 11.1 28.5 89.9 89.9 7.6 13.7 10.9 232.4 215.7 0.00 0.0314322 91.5
2021-06-23 18:45:00 90.3 11.2 29.0 90.3 90.3 10.3 14.2 11.7 203.4 212.2 0.00 0.0472135 91.5
2021-06-23 18:50:00 90.6 10.0 26.7 90.6 90.6 11.3 17.4 12.4 220.9 200.6 0.00 0.0530732 91.5
2021-06-23 18:55:00 91.1 10.1 27.2 91.1 91.1 14.6 15.1 12.0 212.9 223.9 0.00 0.0405098 91.4
2021-06-23 19:00:00 89.9 10.4 26.9 89.9 89.9 18.9 19.9 15.8 201.4 215.1 0.00 0.0233839 91.4
2021-06-23 19:05:00 89.1 10.4 26.4 89.1 89.1 14.4 20.6 16.0 212.9 220.9 0.00 0.0161180 91.3
2021-06-23 19:10:00 89.0 9.8 24.9 89.0 89.0 11.0 15.1 12.0 134.9 194.4 0.00 0.0128498 91.3
2021-06-23 19:15:00 88.7 9.7 24.4 88.7 88.7 9.6 18.7 14.6 220.7 193.3 0.00 0.0120131 91.3
2021-06-23 19:20:00 88.6 9.7 24.2 88.6 88.6 12.2 14.0 11.8 179.2 194.7 0.00 0.0123921 91.2
2021-06-23 19:25:00 88.4 10.3 25.5 88.4 88.4 14.0 15.8 11.8 218.6 199.9 0.00 0.0114706 91.1
2021-06-23 19:30:00 88.1 14.3 33.4 88.1 88.1 16.7 16.7 12.8 246.8 222.3 0.00 0.0106707 91.1
2021-06-23 19:35:00 86.7 15.9 35.1 86.7 86.7 16.2 19.0 15.7 225.3 235.4 0.00 0.0078297 91.0
2021-06-23 19:40:00 86.3 16.5 35.6 86.3 86.3 11.3 16.9 13.0 262.0 239.3 0.00 0.0049469 91.0
2021-06-23 19:45:00 85.8 17.2 36.3 85.8 85.8 13.1 21.2 15.9 248.2 244.6 0.00 0.0031304 90.9
2021-06-23 19:50:00 85.5 17.5 36.5 85.5 85.5 11.9 20.5 14.9 237.8 241.2 0.00 0.0023261 90.9
2021-06-23 19:55:00 85.2 17.8 36.6 85.2 85.2 10.5 17.2 13.2 247.6 245.2 0.00 0.0014606 90.8
2021-06-23 20:00:00 84.8 18.1 36.8 84.8 84.8 11.9 16.4 13.3 266.0 254.2 0.00 0.0008734 90.8
2021-06-23 20:05:00 84.6 18.3 36.9 84.6 84.6 11.3 18.7 13.6 281.1 256.8 0.00 0.0002193 90.7
2021-06-23 20:10:00 84.3 18.4 36.7 84.3 84.3 12.2 16.9 13.5 258.2 250.3 0.00 0.0000000 90.6
2021-06-23 20:15:00 84.0 18.6 36.7 84.0 84.0 15.1 15.1 11.2 261.5 257.1 0.00 0.0000000 90.6
2021-06-23 20:20:00 83.9 18.6 36.7 83.9 83.9 9.6 16.4 13.1 248.6 253.4 0.00 0.0000000 90.5
2021-06-23 20:25:00 83.8 18.7 36.7 83.8 83.8 9.7 16.9 12.3 243.1 252.1 0.00 0.0000000 90.4
2021-06-23 20:30:00 83.6 18.9 36.8 83.6 83.6 10.3 15.5 11.2 268.1 253.8 0.00 0.0000000 90.4
2021-06-23 20:35:00 83.3 18.9 36.6 83.3 83.3 9.9 13.9 10.9 245.4 252.7 0.00 0.0000000 90.2
2021-06-23 20:40:00 83.0 19.1 36.6 83.0 83.0 11.0 14.0 10.6 229.1 253.7 0.00 0.0000000 90.2
2021-06-23 20:45:00 82.8 19.2 36.6 82.8 82.8 6.9 13.0 9.3 220.6 249.9 0.00 0.0000000 90.1
2021-06-23 20:50:00 82.6 19.5 36.7 82.6 82.6 8.1 10.3 8.4 231.0 250.7 0.00 0.0000000 90.0
2021-06-23 20:55:00 82.3 19.7 36.9 82.3 82.3 9.0 9.2 7.2 250.1 251.6 0.00 0.0000000 89.9
2021-06-23 21:00:00 82.1 19.8 36.8 82.1 82.1 4.6 9.7 6.9 245.4 254.6 0.00 0.0000000 89.8
2021-06-23 21:05:00 82.0 19.9 36.8 82.0 82.0 5.8 8.3 6.4 260.7 256.4 0.00 0.0000000 89.7
2021-06-23 21:10:00 81.9 20.0 36.8 81.9 81.9 5.5 7.4 5.7 264.0 260.8 0.00 0.0000000 89.7
2021-06-23 21:15:00 81.9 20.0 36.9 81.9 81.9 5.1 7.1 5.6 244.9 252.1 0.00 0.0000000 89.6
2021-06-23 21:20:00 81.6 20.2 36.9 81.6 81.6 4.2 5.3 4.2 260.3 246.9 0.00 0.0000000 89.5
2021-06-23 21:25:00 81.6 20.3 37.0 81.6 81.6 3.8 4.7 4.0 227.1 238.2 0.00 0.0000000 89.4
2021-06-23 21:30:00 81.5 20.4 37.1 81.5 81.5 4.0 5.5 4.2 222.7 228.0 0.00 0.0000000 89.3
2021-06-23 21:35:00 81.3 20.5 37.0 81.3 81.3 3.1 4.2 3.5 218.6 220.4 0.00 0.0000000 89.2
2021-06-23 21:40:00 81.1 20.6 37.0 81.1 81.1 3.0 5.1 3.7 182.3 181.1 0.00 0.0000000 89.1
2021-06-23 21:45:00 81.0 20.7 37.0 81.0 81.0 3.0 5.3 3.7 99.7 158.3 0.00 0.0000000 89.0
2021-06-23 21:50:00 80.7 20.9 37.0 80.7 80.7 4.0 5.1 3.1 86.8 125.0 0.00 0.0000000 89.0
2021-06-23 21:55:00 80.2 21.2 36.9 80.2 80.2 3.0 4.2 3.5 73.9 91.1 0.00 0.0000000 88.8
2021-06-23 22:00:00 79.9 21.3 36.9 79.9 79.9 4.9 4.9 2.8 96.8 93.3 0.00 0.0000000 88.8
2021-06-23 22:05:00 79.9 21.3 36.8 79.9 79.9 2.4 4.0 3.2 217.3 190.9 0.00 0.0000000 88.7
2021-06-23 22:10:00 80.0 21.8 37.6 80.0 80.0 3.5 3.8 3.2 128.1 169.7 0.00 0.0000000 88.6
2021-06-23 22:15:00 80.1 22.6 38.5 80.1 80.1 4.7 4.7 3.4 145.1 123.3 0.00 0.0000000 88.5
2021-06-23 22:20:00 80.3 22.0 38.0 80.3 80.3 2.6 4.6 3.5 107.2 138.0 0.00 0.0000000 88.4
2021-06-23 22:25:00 80.6 21.4 37.5 80.6 80.6 2.1 4.0 2.6 229.0 204.5 0.00 0.0000000 88.3
2021-06-23 22:30:00 80.6 22.2 38.5 80.6 80.6 2.6 2.6 1.7 330.6 298.9 0.00 0.0000000 88.2
2021-06-23 22:35:00 80.7 22.5 38.8 80.7 80.7 1.5 3.0 2.1 14.6 49.2 0.00 0.0000000 88.1
2021-06-23 22:40:00 80.6 23.0 39.4 80.6 80.6 1.2 2.2 1.3 159.7 158.7 0.00 0.0000000 88.0
2021-06-23 22:45:00 80.2 23.2 39.3 80.2 80.2 0.8 1.0 0.1 183.0 165.5 0.00 0.0000000 87.9
2021-06-23 22:50:00 79.7 23.5 39.2 79.7 79.7 0.0 1.9 1.4 107.6 151.1 0.00 0.0000000 87.8
2021-06-23 22:55:00 79.5 23.7 39.3 79.5 79.5 0.0 0.8 0.2 134.6 135.7 0.00 0.0000000 87.7
2021-06-23 23:00:00 79.4 23.9 39.4 79.4 79.4 2.4 3.3 1.8 198.2 174.6 0.00 0.0000000 87.7
2021-06-23 23:05:00 79.3 23.8 39.2 79.3 79.3 0.0 2.2 0.6 139.4 159.4 0.00 0.0000000 87.5
2021-06-23 23:10:00 79.8 23.1 38.9 79.8 79.8 8.1 9.2 3.9 198.1 101.6 0.00 0.0000118 87.5
2021-06-23 23:15:00 79.2 23.9 39.2 79.2 79.2 1.9 10.3 3.5 125.7 158.0 0.00 0.0000000 87.4
2021-06-23 23:20:00 79.0 24.0 39.1 79.0 79.0 1.3 2.8 2.2 94.4 105.0 0.00 0.0000000 87.3
2021-06-23 23:25:00 79.1 23.9 39.1 79.1 79.1 2.6 2.6 1.9 151.3 120.8 0.00 0.0000000 87.2
2021-06-23 23:30:00 79.2 23.9 39.2 79.2 79.2 2.8 2.8 2.6 158.3 152.2 0.00 0.0000000 87.1
2021-06-23 23:35:00 79.2 23.8 39.1 79.2 79.2 2.6 2.8 2.5 109.6 136.5 0.00 0.0000000 87.0
2021-06-23 23:40:00 78.1 24.7 39.2 78.1 78.1 3.3 4.0 2.9 74.6 141.2 0.00 0.0000000 86.9
2021-06-23 23:45:00 77.8 24.7 38.9 77.8 77.8 3.1 3.5 2.8 242.2 186.8 0.00 0.0000000 86.9
2021-06-23 23:50:00 77.1 25.0 38.6 77.1 77.1 3.8 4.9 3.9 230.8 246.9 0.00 0.0000000 86.8
2021-06-23 23:55:00 77.1 24.6 38.2 77.1 77.1 3.7 4.2 3.6 233.8 233.6 0.00 0.0000000 86.7
2021-06-24 00:00:00 77.0 24.5 37.9 77.0 77.0 3.0 4.7 3.7 214.9 219.0 0.00 0.0000000 86.6
2021-06-24 00:05:00 76.9 24.7 38.1 76.9 76.9 2.1 3.5 2.4 162.5 154.9 0.00 0.0000000 86.5
2021-06-24 00:10:00 77.0 24.5 37.9 77.0 77.0 3.0 3.8 3.2 194.6 174.1 0.00 0.0000000 86.5
2021-06-24 00:15:00 76.7 24.8 38.1 76.7 76.7 2.8 3.0 2.6 155.8 182.9 0.00 0.0000000 86.4
2021-06-24 00:20:00 76.2 25.2 38.0 76.2 76.2 3.0 3.1 2.8 235.8 214.8 0.00 0.0000000 86.3
2021-06-24 00:25:00 75.4 25.6 37.7 75.4 75.4 3.5 3.8 3.2 245.1 239.1 0.00 0.0000000 86.2
2021-06-24 00:30:00 74.3 26.5 37.7 74.3 74.3 5.1 5.1 4.1 252.0 253.2 0.00 0.0000000 86.1
2021-06-24 00:35:00 73.1 27.5 37.6 73.1 73.1 6.9 7.2 5.8 259.6 264.4 0.00 0.0000000 86.1
2021-06-24 00:40:00 73.4 27.1 37.4 73.4 73.4 7.6 7.6 6.5 282.6 262.4 0.00 0.0000000 86.0
2021-06-24 00:45:00 73.7 26.8 37.4 73.7 73.7 5.8 6.9 5.9 267.0 263.2 0.00 0.0000000 85.9
2021-06-24 00:50:00 73.3 27.0 37.3 73.3 73.3 6.5 7.1 5.9 228.9 259.0 0.00 0.0000000 85.8
2021-06-24 00:55:00 73.6 26.7 37.2 73.6 73.6 5.3 7.1 6.0 269.2 256.5 0.00 0.0000000 85.7
2021-06-24 01:00:00 73.1 27.1 37.2 73.1 73.1 5.3 6.9 5.5 262.6 255.4 0.00 0.0000000 85.7
2021-06-24 01:05:00 72.3 27.7 37.1 72.3 72.3 6.5 7.2 6.0 256.9 264.9 0.00 0.0000000 85.6
2021-06-24 01:10:00 73.1 27.7 37.8 73.1 73.1 11.5 13.0 8.7 270.8 260.2 0.00 0.0000000 85.5
2021-06-24 01:15:00 74.0 28.3 39.1 74.0 74.0 9.9 16.0 10.4 171.1 260.1 0.00 0.0000000 85.4
2021-06-24 01:20:00 73.7 30.5 40.8 73.7 73.7 11.0 12.1 9.5 265.6 272.7 0.00 0.0000000 85.3
2021-06-24 01:25:00 73.2 32.2 41.7 73.2 73.2 9.4 14.2 9.7 290.5 264.4 0.00 0.0000000 85.2
2021-06-24 01:30:00 72.6 33.2 42.0 72.6 72.6 8.8 12.6 9.5 266.5 273.6 0.00 0.0000000 85.1
2021-06-24 01:35:00 72.2 33.5 41.9 72.2 72.2 11.5 13.0 10.0 268.4 269.1 0.00 0.0000000 85.1
2021-06-24 01:40:00 71.6 35.0 42.5 71.6 71.6 10.3 12.2 8.6 171.8 269.3 0.00 0.0000000 85.0
2021-06-24 01:45:00 71.3 35.8 42.8 71.3 71.3 11.2 11.2 8.3 273.2 265.7 0.00 0.0000000 84.9
2021-06-24 01:50:00 70.9 36.1 42.7 70.9 70.9 9.6 11.9 9.5 266.2 259.9 0.00 0.0000000 84.8
2021-06-24 01:55:00 70.6 37.1 43.1 70.6 70.6 9.2 15.3 11.1 259.7 265.6 0.00 0.0000000 84.7
2021-06-24 02:00:00 70.2 37.4 43.0 70.2 70.2 7.8 15.1 11.3 266.7 265.2 0.00 0.0000000 84.6
2021-06-24 02:05:00 69.8 37.8 42.9 69.8 69.8 16.5 16.5 12.3 252.6 263.0 0.00 0.0000000 84.5
2021-06-24 02:10:00 69.6 38.1 42.9 69.6 69.6 9.0 18.1 12.7 229.1 253.3 0.00 0.0000000 84.4
2021-06-24 02:15:00 69.2 38.6 42.9 69.2 69.2 14.4 16.0 12.4 252.9 273.7 0.00 0.0000000 84.3
2021-06-24 02:20:00 69.1 38.7 42.9 69.1 69.1 11.3 18.0 14.0 242.6 261.6 0.00 0.0000000 84.2
2021-06-24 02:25:00 68.7 39.3 43.0 68.7 68.7 12.8 19.8 11.3 266.4 249.5 0.00 0.0000000 84.1
2021-06-24 02:30:00 68.7 39.4 43.0 68.7 68.7 11.3 19.0 13.1 228.1 257.0 0.00 0.0000000 84.1
2021-06-24 02:35:00 68.5 39.5 42.9 68.5 68.5 9.2 16.0 11.6 274.8 249.7 0.00 0.0000000 84.0
2021-06-24 02:40:00 68.2 39.8 42.8 68.2 68.2 12.2 14.0 10.9 274.8 265.4 0.00 0.0000000 83.9
2021-06-24 02:45:00 68.1 40.1 42.9 68.1 68.1 9.4 14.0 10.5 176.7 255.1 0.00 0.0000000 83.8
2021-06-24 02:50:00 68.0 40.2 42.9 68.0 68.0 16.2 16.2 11.7 253.6 252.1 0.00 0.0000000 83.7
2021-06-24 02:55:00 67.9 40.3 42.9 67.9 67.9 10.3 15.1 12.5 289.4 259.1 0.00 0.0000000 83.6
2021-06-24 03:00:00 67.8 40.4 42.9 67.8 67.8 8.1 16.0 11.2 222.2 261.7 0.00 0.0000000 83.6
2021-06-24 03:05:00 67.5 40.7 42.8 67.5 67.5 8.8 13.1 9.7 274.9 265.3 0.00 0.0000000 83.5
2021-06-24 03:10:00 67.4 41.1 42.9 67.4 67.4 10.1 13.3 10.1 282.8 267.1 0.00 0.0000000 83.4
2021-06-24 03:15:00 67.0 41.5 42.8 67.0 67.0 9.6 12.6 9.5 256.6 269.3 0.00 0.0000000 83.3
2021-06-24 03:20:00 66.9 41.5 42.7 66.9 66.9 11.7 11.7 9.0 268.3 266.5 0.00 0.0000000 83.3
2021-06-24 03:25:00 67.2 41.2 42.8 67.2 67.2 9.4 13.7 9.8 258.3 257.6 0.00 0.0000000 83.2
2021-06-24 03:30:00 67.2 41.4 42.9 67.2 67.2 12.1 12.1 8.9 284.4 267.9 0.00 0.0000000 83.1
2021-06-24 03:35:00 67.3 41.2 42.9 67.3 67.3 6.3 11.5 9.4 131.6 265.2 0.00 0.0000000 83.0
2021-06-24 03:40:00 67.0 41.8 43.1 67.0 67.0 8.3 11.0 8.4 262.2 269.0 0.00 0.0000000 82.9
2021-06-24 03:45:00 66.8 42.3 43.2 66.8 66.8 6.9 10.5 7.9 279.2 270.2 0.00 0.0000000 82.9
2021-06-24 03:50:00 66.5 42.7 43.1 66.5 66.5 7.1 10.6 7.6 269.8 256.9 0.00 0.0000000 82.8
2021-06-24 03:55:00 66.1 43.4 43.2 66.1 66.1 7.6 9.9 7.5 272.5 272.4 0.00 0.0000000 82.7
2021-06-24 04:00:00 65.7 44.0 43.2 65.7 65.7 7.8 10.6 8.0 220.5 258.0 0.00 0.0000000 82.6
2021-06-24 04:05:00 65.4 44.6 43.3 65.4 65.4 8.5 13.0 9.4 216.9 255.8 0.00 0.0000000 82.5
2021-06-24 04:10:00 65.2 45.0 43.4 65.2 65.2 9.2 10.8 8.7 258.1 256.1 0.00 0.0000000 82.5
2021-06-24 04:15:00 65.3 45.1 43.4 65.3 65.3 9.2 13.5 9.5 260.4 253.1 0.00 0.0000000 82.3
2021-06-24 04:20:00 65.1 45.6 43.6 65.1 65.1 10.6 12.2 9.4 238.4 258.8 0.00 0.0000000 82.3
2021-06-24 04:25:00 65.4 45.3 43.7 65.4 65.4 11.2 14.2 10.3 241.8 250.3 0.00 0.0000000 82.2
2021-06-24 04:30:00 65.3 45.6 43.8 65.3 65.3 9.9 13.5 10.3 258.3 250.6 0.00 0.0000000 82.1
2021-06-24 04:35:00 65.3 45.5 43.7 65.3 65.3 11.5 13.9 11.4 246.3 260.0 0.00 0.0000000 82.0
2021-06-24 04:40:00 65.6 45.6 44.0 65.6 65.6 10.6 13.1 10.7 277.0 266.4 0.00 0.0000000 82.0
2021-06-24 04:45:00 65.5 45.8 44.0 65.5 65.5 9.6 13.9 11.2 257.5 263.2 0.00 0.0000000 81.9
2021-06-24 04:50:00 65.6 45.8 44.1 65.6 65.6 11.2 15.3 12.1 271.6 252.9 0.00 0.0000000 81.8
2021-06-24 04:55:00 65.8 45.6 44.2 65.8 65.8 13.7 16.7 12.9 248.0 247.7 0.00 0.0000000 81.7
2021-06-24 05:00:00 65.8 45.9 44.3 65.8 65.8 12.2 15.5 12.1 259.8 259.9 0.00 0.0000000 81.6
2021-06-24 05:05:00 65.8 46.0 44.4 65.8 65.8 9.6 15.8 12.2 270.2 269.2 0.00 0.0000000 81.6
2021-06-24 05:10:00 65.6 46.2 44.3 65.6 65.6 11.5 13.5 11.2 265.5 258.6 0.00 0.0000000 81.5
2021-06-24 05:15:00 65.2 46.6 44.3 65.2 65.2 10.1 13.5 10.8 253.7 265.5 0.00 0.0000000 81.4
2021-06-24 05:20:00 65.2 46.6 44.3 65.2 65.2 13.3 13.3 10.3 270.6 261.7 0.00 0.0000000 81.3
2021-06-24 05:25:00 65.3 46.6 44.3 65.3 65.3 11.7 13.3 10.4 284.4 259.4 0.00 0.0000000 81.3
2021-06-24 05:30:00 65.1 46.8 44.3 65.1 65.1 8.5 12.1 9.7 270.2 256.5 0.00 0.0000000 81.2
2021-06-24 05:35:00 65.2 47.1 44.5 65.2 65.2 8.8 11.7 8.6 255.7 260.4 0.00 0.0000000 81.1
2021-06-24 05:40:00 65.1 47.0 44.4 65.1 65.1 10.6 11.3 9.2 273.8 256.1 0.00 0.0000000 81.0
2021-06-24 05:45:00 64.9 47.1 44.3 64.9 64.9 8.3 10.8 9.0 266.8 265.0 0.00 0.0000000 81.0
2021-06-24 05:50:00 64.8 47.4 44.3 64.8 64.8 9.9 10.6 8.8 253.3 259.2 0.00 0.0000000 80.9
2021-06-24 05:55:00 65.1 47.1 44.4 65.1 65.1 10.3 12.6 10.2 273.7 267.1 0.00 0.0000000 80.8
2021-06-24 06:00:00 64.8 47.6 44.4 64.8 64.8 8.5 11.2 9.5 253.1 254.6 0.00 0.0000000 80.8
2021-06-24 06:05:00 64.6 47.8 44.3 64.6 64.6 9.4 12.2 9.3 273.9 255.9 0.00 0.0000031 80.7
2021-06-24 06:10:00 64.6 47.7 44.3 64.6 64.6 10.1 12.2 9.9 233.4 258.4 0.00 0.0010631 80.6
2021-06-24 06:15:00 64.7 47.7 44.4 64.7 64.7 9.0 13.1 10.3 273.3 253.4 0.00 0.0009950 80.5
2021-06-24 06:20:00 64.7 47.8 44.4 64.7 64.7 10.3 13.5 10.6 266.0 258.1 0.00 0.0016619 80.5
2021-06-24 06:25:00 64.7 47.7 44.4 64.7 64.7 10.1 11.9 10.1 267.0 257.2 0.00 0.0027408 80.4
2021-06-24 06:30:00 64.9 47.3 44.4 64.9 64.9 9.6 12.4 9.4 247.4 255.4 0.00 0.0058216 80.3
2021-06-24 06:35:00 65.5 46.4 44.4 65.5 65.5 7.6 12.4 9.2 235.9 252.2 0.00 0.0117335 80.3
2021-06-24 06:40:00 66.1 45.6 44.5 66.1 66.1 7.4 11.7 9.7 245.1 254.1 0.00 0.0168673 80.2
2021-06-24 06:45:00 66.3 45.4 44.5 66.3 66.3 9.0 12.6 9.3 254.7 254.2 0.00 0.0109918 80.1
2021-06-24 06:50:00 66.4 45.4 44.6 66.4 66.4 11.7 13.9 10.6 269.0 255.0 0.00 0.0121606 80.1
2021-06-24 06:55:00 66.4 45.5 44.6 66.4 66.4 10.8 14.4 11.7 241.5 255.8 0.00 0.0089138 80.0
2021-06-24 07:00:00 66.8 44.9 44.7 66.8 66.8 11.2 13.7 11.4 260.5 262.8 0.00 0.0145748 79.9
2021-06-24 07:05:00 66.7 45.1 44.7 66.7 66.7 8.7 11.2 9.2 155.1 261.7 0.00 0.0114406 79.9
2021-06-24 07:10:00 66.8 44.9 44.8 66.8 66.8 8.1 11.2 9.3 257.2 261.3 0.00 0.0112593 79.8
2021-06-24 07:15:00 67.1 44.6 44.8 67.1 67.1 8.3 11.7 9.0 277.3 269.2 0.00 0.0143305 79.8
2021-06-24 07:20:00 67.4 44.2 44.8 67.4 67.4 9.6 12.2 9.9 258.0 268.6 0.00 0.0167958 79.7
2021-06-24 07:25:00 67.8 43.6 44.9 67.8 67.8 11.3 11.5 9.8 247.2 267.6 0.00 0.0205432 79.6
2021-06-24 07:30:00 68.3 43.0 44.9 68.3 68.3 8.1 12.1 8.9 301.0 274.9 0.00 0.0221490 79.6
2021-06-24 07:35:00 68.9 42.3 45.0 68.9 68.9 8.1 13.0 9.4 281.8 280.8 0.00 0.0216271 79.5
2021-06-24 07:40:00 69.2 41.8 45.0 69.2 69.2 8.8 12.6 9.4 299.9 273.4 0.00 0.0196270 79.5
2021-06-24 07:45:00 69.6 41.1 44.9 69.6 69.6 10.3 14.4 9.4 244.6 271.8 0.00 0.0226575 79.4
2021-06-24 07:50:00 70.2 40.3 45.0 70.2 70.2 7.4 11.3 8.0 278.0 279.9 0.00 0.0296670 79.4
2021-06-24 07:55:00 70.8 39.6 45.0 70.8 70.8 9.9 13.1 9.7 258.0 264.0 0.00 0.0320402 79.3
2021-06-24 08:00:00 71.3 38.9 45.0 71.3 71.3 9.9 12.4 9.2 280.4 272.5 0.00 0.0315676 79.3
2021-06-24 08:05:00 71.7 38.3 44.9 71.7 71.7 9.7 12.6 9.2 306.2 273.6 0.00 0.0240666 79.2
2021-06-24 08:10:00 71.7 38.2 44.9 71.7 71.7 10.5 13.1 10.4 290.6 272.3 0.00 0.0238010 79.2
2021-06-24 08:15:00 72.6 37.1 45.0 72.6 72.6 10.3 13.9 9.6 269.4 269.4 0.00 0.0664551 79.1
2021-06-24 08:20:00 73.0 36.7 45.0 73.0 73.0 9.2 14.7 9.8 280.5 273.6 0.00 0.0664703 79.1
2021-06-24 08:25:00 73.6 36.0 45.0 73.6 73.6 9.6 12.8 9.2 239.9 277.4 0.00 0.0864484 79.1
2021-06-24 08:30:00 74.8 34.8 45.2 74.8 74.8 7.1 13.1 9.0 302.9 277.0 0.00 0.0886859 79.1
2021-06-24 08:35:00 74.3 34.8 44.8 74.3 74.3 12.2 13.3 10.5 264.1 281.2 0.00 0.0675057 79.0
2021-06-24 08:40:00 74.8 33.9 44.5 74.8 74.8 11.0 15.5 12.1 320.6 274.8 0.00 0.1007978 79.0
2021-06-24 08:45:00 75.7 33.0 44.5 75.7 75.7 11.3 15.1 11.1 268.1 280.7 0.00 0.1000090 79.0
2021-06-24 08:50:00 76.7 31.6 44.3 76.7 76.7 9.7 14.6 10.3 287.8 279.0 0.00 0.1036633 79.0
2021-06-24 08:55:00 76.2 32.1 44.2 76.2 76.2 9.9 14.9 11.3 295.4 281.4 0.00 0.1060868 78.9
2021-06-24 09:00:00 76.3 32.4 44.6 76.3 76.3 8.7 13.3 10.9 267.2 281.5 0.00 0.1154874 78.9
2021-06-24 09:05:00 76.9 30.3 43.3 76.9 76.9 16.5 16.5 12.0 317.8 284.6 0.00 0.1240203 78.9
2021-06-24 09:10:00 77.0 30.8 43.9 77.0 77.0 15.5 16.7 13.0 292.3 285.6 0.00 0.1359504 78.9
2021-06-24 09:15:00 78.1 29.6 43.8 78.1 78.1 9.9 17.8 11.9 241.3 270.5 0.00 0.1363729 78.9
2021-06-24 09:20:00 76.9 30.9 43.8 76.9 76.9 14.0 16.4 13.4 309.8 282.3 0.00 0.1241767 78.9
2021-06-24 09:25:00 77.0 30.6 43.7 77.0 77.0 13.9 18.0 13.2 208.1 283.8 0.00 0.1198260 79.0
2021-06-24 09:30:00 77.2 30.8 44.1 77.2 77.2 11.5 16.5 12.1 284.1 280.4 0.00 0.1212788 79.0
2021-06-24 09:35:00 78.0 29.1 43.2 78.0 78.0 12.6 16.5 10.8 282.2 277.1 0.00 0.1230760 79.0
2021-06-24 09:40:00 78.0 29.6 43.7 78.0 78.0 11.2 14.7 11.4 274.6 280.1 0.00 0.1262656 79.1
2021-06-24 09:45:00 79.2 28.4 43.7 79.2 79.2 11.5 13.9 10.5 314.3 292.2 0.00 0.1297269 79.1
2021-06-24 09:50:00 78.8 28.0 43.0 78.8 78.8 11.2 13.0 9.4 317.1 286.9 0.00 0.1317625 79.2
2021-06-24 09:55:00 79.1 28.0 43.3 79.1 79.1 7.8 13.1 9.4 266.8 273.2 0.00 0.1340369 79.2
2021-06-24 10:00:00 78.7 27.5 42.3 78.7 78.7 9.6 12.6 9.7 280.7 286.3 0.00 0.1361054 79.3
2021-06-24 10:05:00 79.4 27.4 42.9 79.4 79.4 6.9 13.5 10.3 290.7 309.0 0.00 0.1391726 79.4
2021-06-24 10:10:00 79.9 27.5 43.3 79.9 79.9 6.5 12.6 8.1 313.3 286.8 0.00 0.1420904 79.4
2021-06-24 10:15:00 80.3 26.9 43.2 80.3 80.3 10.6 12.4 9.2 262.9 263.7 0.00 0.1249629 79.5
2021-06-24 10:20:00 80.1 26.9 43.0 80.1 80.1 9.7 13.3 8.8 276.7 270.3 0.00 0.1435278 79.6
2021-06-24 10:25:00 81.1 25.0 41.9 81.1 81.1 8.7 13.1 9.2 271.3 263.3 0.00 0.1407773 79.7
2021-06-24 10:30:00 81.2 25.8 42.8 81.2 81.2 10.8 11.3 7.9 288.8 267.2 0.00 0.1416690 79.8
2021-06-24 10:35:00 81.9 25.2 42.8 81.9 81.9 8.0 14.0 10.2 293.4 270.1 0.00 0.1609922 80.0
2021-06-24 10:40:00 81.4 25.4 42.7 81.4 81.4 7.8 10.8 8.4 267.7 265.7 0.00 0.0899924 80.1
2021-06-24 10:45:00 80.3 26.0 42.2 80.3 80.3 4.6 10.8 8.1 264.1 294.1 0.00 0.0423592 80.2
2021-06-24 10:50:00 82.7 24.1 42.3 82.7 82.7 8.5 10.5 7.0 268.7 277.6 0.00 0.1551023 80.3
2021-06-24 10:55:00 82.8 23.4 41.7 82.8 82.8 7.2 12.6 9.0 312.6 303.8 0.00 0.1706050 80.5
2021-06-24 11:00:00 83.7 22.5 41.4 83.7 83.7 8.3 11.3 8.2 301.9 284.2 0.00 0.1654530 80.6
2021-06-24 11:05:00 83.4 22.5 41.2 83.4 83.4 6.2 13.0 8.9 281.3 283.2 0.00 0.1654584 80.7
2021-06-24 11:10:00 84.1 21.9 41.0 84.1 84.1 9.4 14.2 8.7 289.7 286.4 0.00 0.1662543 80.9
2021-06-24 11:15:00 83.3 22.4 41.0 83.3 83.3 5.6 12.4 8.2 302.3 292.1 0.00 0.1675622 81.0
2021-06-24 11:20:00 83.1 22.7 41.2 83.1 83.1 6.7 14.2 8.2 19.6 324.8 0.00 0.1688774 81.2
2021-06-24 11:25:00 84.4 21.1 40.3 84.4 84.4 11.3 11.3 8.1 309.7 310.2 0.00 0.1695102 81.4
2021-06-24 11:30:00 84.0 21.4 40.4 84.0 84.0 6.7 10.6 7.8 309.5 256.7 0.00 0.1704020 81.5
2021-06-24 11:35:00 83.9 21.6 40.5 83.9 83.9 4.9 8.7 4.1 0.1 311.6 0.00 0.1721180 81.7
2021-06-24 11:40:00 85.1 21.2 41.1 85.1 85.1 7.1 15.1 7.1 274.9 277.0 0.00 0.1727199 81.8
2021-06-24 11:45:00 84.4 21.6 40.9 84.4 84.4 11.5 11.5 6.7 262.8 297.4 0.00 0.1744203 82.0
2021-06-24 11:50:00 83.4 22.2 40.8 83.4 83.4 4.4 9.4 6.9 310.9 316.1 0.00 0.1758522 82.2
2021-06-24 11:55:00 84.1 21.6 40.7 84.1 84.1 5.1 6.2 4.0 35.5 87.8 0.00 0.1772530 82.4
2021-06-24 12:00:00 85.7 20.9 41.1 85.7 85.7 8.5 18.1 6.2 317.9 313.3 0.00 0.1780814 82.6
2021-06-24 12:05:00 85.9 20.9 41.3 85.9 85.9 9.6 10.6 8.4 290.8 289.8 0.00 0.1788914 82.8
2021-06-24 12:10:00 84.7 21.5 41.1 84.7 84.7 4.9 11.0 7.5 278.6 271.1 0.00 0.1808345 82.9
2021-06-24 12:15:00 86.3 20.5 41.1 86.3 86.3 6.7 11.7 6.7 254.3 262.0 0.00 0.1846042 83.1
2021-06-24 12:20:00 85.5 20.9 41.0 85.5 85.5 3.0 9.4 6.7 271.6 282.4 0.00 0.1869265 83.3
2021-06-24 12:25:00 86.6 20.0 40.7 86.6 86.6 9.4 11.0 7.2 286.1 279.9 0.00 0.1769878 83.5
2021-06-24 12:30:00 86.2 20.6 41.2 86.2 86.2 4.0 8.7 4.9 151.0 257.5 0.00 0.1888272 83.7
2021-06-24 12:35:00 87.9 19.2 40.7 87.9 87.9 4.6 10.8 6.3 292.4 268.5 0.00 0.1916363 83.9
2021-06-24 12:40:00 86.6 20.0 40.8 86.6 86.6 3.7 10.1 6.9 12.6 305.0 0.00 0.1371960 84.2
2021-06-24 12:45:00 87.0 19.8 40.9 87.0 87.0 8.8 9.6 5.3 266.9 297.0 0.00 0.1001936 84.4
2021-06-24 12:50:00 86.9 19.9 40.9 86.9 86.9 8.8 13.7 9.4 231.6 217.5 0.00 0.1551656 84.6
2021-06-24 12:55:00 87.4 19.3 40.5 87.4 87.4 3.1 9.9 4.3 80.5 123.7 0.00 0.2184870 84.8
2021-06-24 13:00:00 87.6 19.1 40.5 87.6 87.6 2.4 4.9 3.4 110.7 151.8 0.00 0.2214534 85.0
2021-06-24 13:05:00 88.7 18.4 40.3 88.7 88.7 6.5 8.8 5.8 237.7 353.3 0.00 0.1873466 85.2
2021-06-24 13:10:00 88.8 18.3 40.3 88.8 88.8 5.5 10.8 7.0 330.1 273.9 0.00 0.1798546 85.5
2021-06-24 13:15:00 87.9 19.0 40.5 87.9 87.9 7.8 11.9 7.3 340.5 300.1 0.00 0.1227608 85.7
2021-06-24 13:20:00 87.9 18.2 39.5 87.9 87.9 13.5 13.5 9.3 93.1 278.3 0.00 0.0759817 85.9
2021-06-24 13:25:00 88.4 18.0 39.6 88.4 88.4 8.5 17.1 10.0 172.0 168.9 0.00 0.1807353 86.1
2021-06-24 13:30:00 90.5 16.7 39.3 90.5 90.5 14.7 20.3 12.1 215.1 201.2 0.00 0.1697600 86.4
2021-06-24 13:35:00 88.8 17.9 39.7 88.8 88.8 12.4 19.6 12.5 252.9 223.3 0.00 0.1477346 86.6
2021-06-24 13:40:00 89.1 18.0 40.1 89.1 89.1 13.3 16.4 10.7 260.7 249.5 0.00 0.2113062 86.8
2021-06-24 13:45:00 89.0 17.9 39.8 89.0 89.0 10.5 15.6 10.6 259.3 234.1 0.00 0.1985419 87.0
2021-06-24 13:50:00 89.3 18.0 40.3 89.3 89.3 8.0 16.2 10.6 247.9 232.9 0.00 0.1989169 87.2
2021-06-24 13:55:00 89.4 18.1 40.5 89.4 89.4 12.1 17.1 8.2 231.9 263.9 0.00 0.1975686 87.5
2021-06-24 14:00:00 88.4 18.7 40.6 88.4 88.4 11.2 18.1 15.0 229.8 225.2 0.00 0.0804885 87.7
2021-06-24 14:05:00 88.5 18.2 40.0 88.5 88.5 8.7 11.9 9.2 195.6 192.3 0.00 0.1586269 87.9
2021-06-24 14:10:00 87.5 19.3 40.6 87.5 87.5 6.0 13.3 5.9 268.9 248.6 0.00 0.0790774 88.1
2021-06-24 14:15:00 88.1 18.8 40.3 88.1 88.1 4.7 9.4 6.3 221.5 251.1 0.00 0.1373687 88.3
2021-06-24 14:20:00 90.1 17.5 40.1 90.1 90.1 14.2 25.1 15.4 236.4 243.0 0.00 0.1964887 88.4
2021-06-24 14:25:00 90.5 16.8 39.4 90.5 90.5 4.6 20.1 9.2 251.3 241.0 0.00 0.1906982 88.6
2021-06-24 14:30:00 90.0 16.6 38.8 90.0 90.0 10.1 14.6 10.0 235.3 243.6 0.00 0.1132969 88.8
2021-06-24 14:35:00 91.5 15.9 38.8 91.5 91.5 18.1 21.0 14.7 219.9 236.6 0.00 0.1925563 89.0
2021-06-24 14:40:00 89.6 17.2 39.4 89.6 89.6 8.1 16.0 11.3 276.5 242.0 0.00 0.1824869 89.2
2021-06-24 14:45:00 89.9 17.0 39.2 89.9 89.9 15.8 18.7 11.7 224.9 235.8 0.00 0.1250038 89.4
2021-06-24 14:50:00 90.3 17.1 39.7 90.3 90.3 8.7 19.9 13.3 166.3 206.3 0.00 0.1831110 89.6
2021-06-24 14:55:00 90.5 16.4 38.9 90.5 90.5 12.2 17.1 10.2 239.3 227.0 0.00 0.1789401 89.7
2021-06-24 15:00:00 92.2 14.3 36.8 92.2 92.2 16.0 21.5 14.6 205.6 212.5 0.00 0.1770368 89.9
2021-06-24 15:05:00 90.2 16.4 38.6 90.2 90.2 9.0 20.5 14.9 183.8 189.4 0.00 0.1778511 90.1
2021-06-24 15:10:00 89.0 17.4 39.1 89.0 89.0 12.6 19.4 9.6 232.7 210.2 0.00 0.0921221 90.2
2021-06-24 15:15:00 88.3 17.6 38.8 88.3 88.3 9.0 14.2 11.0 227.0 224.7 0.00 0.0254796 90.4
2021-06-24 15:20:00 89.0 17.2 38.8 89.0 89.0 4.0 9.0 5.2 202.8 214.7 0.00 0.1382633 90.5
2021-06-24 15:25:00 90.9 15.2 37.2 90.9 90.9 13.3 19.0 12.5 172.1 206.5 0.00 0.1753033 90.7
2021-06-24 15:30:00 90.6 15.8 38.0 90.6 90.6 12.6 17.4 11.8 234.6 215.7 0.00 0.0894893 90.8
2021-06-24 15:35:00 88.5 17.6 39.0 88.5 88.5 16.2 17.1 10.6 202.5 224.5 0.00 0.0360948 91.0
2021-06-24 15:40:00 88.2 17.7 38.9 88.2 88.2 10.3 16.2 13.2 175.7 176.8 0.00 0.0380785 91.1
2021-06-24 15:45:00 86.9 21.9 43.4 86.9 86.9 14.6 17.6 14.4 138.3 152.7 0.00 0.1166499 91.2
2021-06-24 15:50:00 85.5 23.0 43.5 85.5 85.5 15.3 21.0 15.5 18.5 124.8 0.00 0.0538293 91.4
2021-06-24 15:55:00 85.3 23.6 44.0 85.3 85.3 10.5 22.3 14.7 114.2 112.6 0.00 0.0348136 91.5
2021-06-24 16:00:00 84.3 23.9 43.4 84.3 84.3 13.3 18.5 14.4 133.6 117.3 0.00 0.0214432 91.6
2021-06-24 16:05:00 83.6 24.8 43.9 83.6 83.6 17.2 22.4 15.8 86.2 120.9 0.00 0.0190739 91.7
2021-06-24 16:10:00 83.5 24.8 43.7 83.5 83.5 16.4 19.8 14.7 137.5 112.4 0.00 0.0286791 91.9
2021-06-24 16:15:00 83.3 24.5 43.4 83.3 83.3 12.4 18.0 13.2 156.3 119.3 0.00 0.0300390 91.9
2021-06-24 16:20:00 83.8 24.4 43.6 83.8 83.8 9.0 14.2 8.6 275.8 153.8 0.00 0.0199756 92.0
2021-06-24 16:25:00 78.6 35.9 49.3 78.6 78.6 19.2 22.3 14.0 277.3 281.6 0.00 0.0063098 92.1
2021-06-24 16:30:00 73.3 53.5 55.4 73.3 73.3 18.3 23.7 19.5 264.8 267.3 0.00 0.0009700 92.1
2021-06-24 16:35:00 67.0 67.4 55.8 67.0 67.0 13.1 20.5 14.0 249.0 269.2 0.13 0.0045168 92.0
2021-06-24 16:40:00 68.5 63.8 55.7 68.5 68.5 13.9 14.9 11.9 270.9 293.6 0.02 0.0135502 92.1
2021-06-24 16:45:00 69.7 60.9 55.6 69.7 69.7 10.3 16.4 12.4 261.1 284.6 0.00 0.0167487 92.1
2021-06-24 16:50:00 71.0 60.8 56.8 71.0 71.0 6.7 13.5 9.5 5.4 302.4 0.00 0.0636314 92.0
2021-06-24 16:55:00 72.1 55.5 55.3 72.1 72.1 10.5 14.4 10.3 312.2 306.2 0.00 0.0496200 92.0
2021-06-24 17:00:00 72.6 53.9 55.0 72.6 72.6 12.8 17.6 10.4 343.2 330.9 0.00 0.0619215 92.2
2021-06-24 17:05:00 73.3 55.5 56.5 73.3 73.3 8.3 11.9 8.8 5.4 328.5 0.00 0.1074748 92.2
2021-06-24 17:10:00 75.2 50.7 55.6 75.2 75.2 9.4 12.4 8.6 1.2 347.9 0.00 0.1206386 92.2
2021-06-24 17:15:00 75.0 47.3 53.6 75.0 75.0 3.3 13.0 7.7 276.5 352.6 0.00 0.1227712 92.1
2021-06-24 17:20:00 77.3 43.2 53.2 77.3 77.3 7.8 16.0 10.8 18.8 328.2 0.00 0.0886937 92.1
2021-06-24 17:25:00 76.5 49.1 56.0 76.5 76.5 5.3 7.6 5.4 76.4 356.3 0.00 0.0445684 92.0
2021-06-24 17:30:00 77.9 33.8 47.1 77.9 77.9 11.7 13.3 7.9 294.9 272.4 0.00 0.0426527 92.0
2021-06-24 17:35:00 78.4 32.8 46.7 78.4 78.4 9.6 14.7 9.4 285.4 278.8 0.00 0.0292235 91.8
2021-06-24 17:40:00 78.7 33.1 47.2 78.7 78.7 7.8 11.5 8.5 282.1 263.2 0.00 0.0230406 91.7

Data is courtesy of the NM Climate Center. DO NOT USE IN LEGAL PROCEEDINGS.